createdAt,value
2022-08-25T00:01:34.186Z,21.70
2022-08-25T00:04:36.148Z,21.70
2022-08-25T00:07:40.811Z,21.60
2022-08-25T00:10:42.841Z,21.70
2022-08-25T00:13:46.991Z,21.60
2022-08-25T00:16:48.964Z,21.60
2022-08-25T00:19:50.947Z,21.60
2022-08-25T00:22:53.012Z,21.60
2022-08-25T00:25:55.488Z,21.60
2022-08-25T00:29:02.000Z,21.60
2022-08-25T00:32:05.779Z,21.60
2022-08-25T00:35:07.821Z,21.50
2022-08-25T00:38:11.230Z,21.40
2022-08-25T00:41:15.471Z,21.40
2022-08-25T00:44:27.433Z,21.40
2022-08-25T00:47:29.895Z,21.40
2022-08-25T00:50:35.017Z,21.40
2022-08-25T00:53:41.802Z,21.40
2022-08-25T00:56:44.610Z,21.40
2022-08-25T00:59:46.709Z,21.40
2022-08-25T01:02:48.758Z,21.50
2022-08-25T01:05:51.032Z,21.40
2022-08-25T01:08:54.570Z,21.40
2022-08-25T01:11:56.845Z,21.40
2022-08-25T01:14:59.025Z,21.50
2022-08-25T01:18:01.259Z,21.50
2022-08-25T01:21:03.322Z,21.40
2022-08-25T01:24:06.108Z,21.30
2022-08-25T01:27:09.010Z,21.30
2022-08-25T01:30:12.314Z,21.30
2022-08-25T01:33:17.388Z,21.30
2022-08-25T01:36:20.170Z,21.30
2022-08-25T01:39:22.547Z,21.30
2022-08-25T01:43:03.133Z,21.30
2022-08-25T01:46:05.752Z,21.30
2022-08-25T01:49:07.858Z,21.30
2022-08-25T01:52:16.347Z,21.40
2022-08-25T01:55:19.429Z,21.30
2022-08-25T01:58:24.133Z,21.30
2022-08-25T02:01:26.540Z,21.30
2022-08-25T02:04:32.445Z,21.30
2022-08-25T02:07:34.677Z,21.30
2022-08-25T02:10:36.609Z,21.30
2022-08-25T02:13:45.322Z,21.30
2022-08-25T02:16:49.067Z,21.30
2022-08-25T02:19:51.042Z,21.40
2022-08-25T02:22:57.125Z,21.40
2022-08-25T02:25:59.238Z,21.40
2022-08-25T02:29:01.391Z,21.40
2022-08-25T02:32:03.829Z,21.30
2022-08-25T02:35:06.440Z,21.30
2022-08-25T02:38:08.360Z,21.30
2022-08-25T02:41:12.745Z,21.30
2022-08-25T02:44:14.760Z,21.30
2022-08-25T02:47:16.968Z,21.30
2022-08-25T02:50:18.945Z,21.30
2022-08-25T02:53:21.565Z,21.30
2022-08-25T02:56:24.327Z,21.30
2022-08-25T02:59:26.690Z,21.30
2022-08-25T03:02:28.661Z,21.30
2022-08-25T03:05:30.606Z,21.40
2022-08-25T03:08:32.546Z,21.30
2022-08-25T03:11:34.507Z,21.30
2022-08-25T03:14:36.616Z,21.30
2022-08-25T03:17:38.614Z,21.30
2022-08-25T03:20:40.538Z,21.30
2022-08-25T03:23:42.540Z,21.40
2022-08-25T03:26:58.879Z,21.40
2022-08-25T03:30:01.922Z,21.40
2022-08-25T03:33:04.734Z,21.30
2022-08-25T03:36:09.381Z,21.40
2022-08-25T03:39:11.344Z,21.40
2022-08-25T03:42:13.239Z,21.30
2022-08-25T03:45:17.881Z,21.30
2022-08-25T03:48:19.817Z,21.40
2022-08-25T03:51:23.143Z,21.40
2022-08-25T03:54:25.664Z,21.30
2022-08-25T03:57:27.912Z,21.30
2022-08-25T04:00:29.886Z,21.30
2022-08-25T04:03:32.039Z,21.30
2022-08-25T04:06:34.335Z,21.20
2022-08-25T04:09:36.986Z,21.20
2022-08-25T04:12:39.017Z,21.20
2022-08-25T04:15:46.427Z,21.20
2022-08-25T04:18:49.538Z,21.30
2022-08-25T04:21:52.836Z,21.20
2022-08-25T04:24:59.425Z,21.30
2022-08-25T04:28:01.977Z,21.10
2022-08-25T04:31:10.401Z,21.20
2022-08-25T04:34:29.297Z,21.10
2022-08-25T04:37:33.528Z,21.10
2022-08-25T04:40:35.803Z,21.10
2022-08-25T04:43:38.912Z,21.10
2022-08-25T04:46:40.848Z,21.20
2022-08-25T04:49:43.047Z,21.20
2022-08-25T04:52:44.980Z,21.20
2022-08-25T04:55:48.050Z,21.20
2022-08-25T04:58:50.040Z,21.30
2022-08-25T05:01:52.436Z,21.20
2022-08-25T05:04:55.579Z,21.20
2022-08-25T05:07:57.755Z,21.30
2022-08-25T05:11:00.193Z,21.20
2022-08-25T05:14:05.562Z,21.30
2022-08-25T05:17:08.225Z,21.30
2022-08-25T05:20:10.321Z,21.30
2022-08-25T05:23:12.291Z,21.30
2022-08-25T05:26:19.712Z,21.30
2022-08-25T05:29:23.145Z,21.40
2022-08-25T05:32:26.202Z,21.40
2022-08-25T05:35:28.552Z,21.40
2022-08-25T05:38:33.258Z,21.40
2022-08-25T05:41:35.323Z,21.40
2022-08-25T05:44:37.540Z,21.30
2022-08-25T05:47:39.730Z,21.40
2022-08-25T05:50:43.107Z,21.30
2022-08-25T05:53:46.419Z,21.30
2022-08-25T05:56:48.401Z,21.30
2022-08-25T05:59:50.423Z,21.40
2022-08-25T06:02:53.900Z,21.40
2022-08-25T06:06:05.931Z,21.40
2022-08-25T06:09:10.559Z,21.40
2022-08-25T06:12:13.106Z,21.40
2022-08-25T06:15:16.420Z,21.40
2022-08-25T06:18:18.454Z,21.40
2022-08-25T06:21:21.374Z,21.40
2022-08-25T06:24:24.582Z,21.40
2022-08-25T06:27:26.527Z,21.50
2022-08-25T06:30:31.620Z,21.50
2022-08-25T06:33:33.643Z,21.40
2022-08-25T06:36:35.763Z,21.40
2022-08-25T06:39:38.347Z,21.40
2022-08-25T06:42:43.364Z,21.40
2022-08-25T06:45:45.313Z,21.40
2022-08-25T06:48:47.697Z,21.40
2022-08-25T06:51:50.391Z,21.50
2022-08-25T06:54:53.325Z,21.60
2022-08-25T06:57:55.297Z,21.60
2022-08-25T07:00:57.282Z,21.50
2022-08-25T07:04:00.359Z,21.60
2022-08-25T07:07:04.234Z,21.60
2022-08-25T07:10:06.449Z,21.50
2022-08-25T07:13:08.636Z,21.50
2022-08-25T07:16:11.588Z,21.60
2022-08-25T07:19:14.773Z,21.60
2022-08-25T07:22:16.782Z,21.70
2022-08-25T07:25:18.934Z,21.70
2022-08-25T07:28:21.980Z,21.70
2022-08-25T07:31:27.117Z,21.80
2022-08-25T07:34:52.894Z,21.70
2022-08-25T07:37:57.062Z,21.90
2022-08-25T07:41:03.782Z,21.90
2022-08-25T07:44:06.214Z,21.90
2022-08-25T07:47:08.193Z,22.10
2022-08-25T07:50:12.146Z,22.20
2022-08-25T07:53:15.647Z,22.20
2022-08-25T07:56:17.867Z,22.10
2022-08-25T07:59:19.901Z,22.20
2022-08-25T08:02:21.911Z,22.20
2022-08-25T08:05:27.557Z,22.20
2022-08-25T08:08:29.655Z,22.30
2022-08-25T08:11:37.241Z,22.30
2022-08-25T08:14:44.843Z,22.50
2022-08-25T08:17:47.815Z,22.50
2022-08-25T08:20:50.161Z,22.60
2022-08-25T08:23:58.052Z,22.50
2022-08-25T08:27:00.727Z,22.60
2022-08-25T08:30:05.116Z,22.70
2022-08-25T08:33:11.172Z,22.90
2022-08-25T08:36:13.439Z,23.00
2022-08-25T08:39:15.363Z,23.00
2022-08-25T08:42:29.324Z,23.00
2022-08-25T08:45:40.564Z,23.00
2022-08-25T08:48:46.165Z,23.00
2022-08-25T08:51:53.486Z,23.00
2022-08-25T08:55:00.576Z,22.90
2022-08-25T08:58:05.550Z,22.80
2022-08-25T09:01:08.814Z,22.90
2022-08-25T09:04:16.692Z,22.90
2022-08-25T09:07:24.430Z,23.00
2022-08-25T09:10:29.374Z,23.10
2022-08-25T09:13:50.014Z,23.30
2022-08-25T09:16:57.773Z,23.30
2022-08-25T09:20:18.831Z,23.40
2022-08-25T09:23:33.487Z,23.50
2022-08-25T09:26:59.031Z,23.60
2022-08-25T09:30:05.141Z,23.60
2022-08-25T09:33:07.962Z,23.70
2022-08-25T09:36:10.216Z,23.80
2022-08-25T09:39:12.408Z,23.80
2022-08-25T09:42:15.233Z,23.80
2022-08-25T09:45:17.420Z,23.80
2022-08-25T09:48:23.212Z,23.80
2022-08-25T09:51:25.159Z,23.70
2022-08-25T09:54:37.743Z,23.70
2022-08-25T09:57:52.790Z,23.80
2022-08-25T10:01:04.510Z,23.90
2022-08-25T10:04:06.687Z,24.00
2022-08-25T10:07:24.170Z,24.00
2022-08-25T10:10:28.816Z,24.10
2022-08-25T10:13:37.277Z,24.20
2022-08-25T10:16:39.550Z,24.40
2022-08-25T10:19:41.687Z,24.50
2022-08-25T10:22:43.970Z,24.80
2022-08-25T10:25:57.953Z,25.30
2022-08-25T10:29:20.459Z,25.80
2022-08-25T10:32:43.076Z,26.30
2022-08-25T10:35:54.157Z,26.80
2022-08-25T10:39:01.421Z,27.00
2022-08-25T10:42:10.527Z,27.00
2022-08-25T10:45:40.818Z,26.90
2022-08-25T10:48:43.043Z,27.30
2022-08-25T10:51:55.790Z,27.80
2022-08-25T10:55:01.444Z,28.20
2022-08-25T10:58:23.248Z,29.30
2022-08-25T11:01:28.208Z,30.10
2022-08-25T11:04:38.082Z,30.90
2022-08-25T11:07:43.460Z,31.40
2022-08-25T11:10:45.660Z,31.50
2022-08-25T11:14:06.333Z,31.10
2022-08-25T11:17:17.829Z,31.20
2022-08-25T11:20:27.149Z,31.90
2022-08-25T11:23:49.493Z,32.80
2022-08-25T11:26:54.841Z,33.00
2022-08-25T11:30:05.895Z,33.50
2022-08-25T11:33:12.393Z,33.90
2022-08-25T11:36:34.739Z,33.20
2022-08-25T11:39:57.499Z,32.80
2022-08-25T11:43:02.082Z,31.80
2022-08-25T11:46:27.697Z,31.20
2022-08-25T11:49:32.929Z,30.70
2022-08-25T11:52:43.514Z,29.90
2022-08-25T11:55:53.900Z,29.20
2022-08-25T11:58:55.864Z,28.90
2022-08-25T12:02:04.863Z,28.40
2022-08-25T12:05:28.219Z,28.00
2022-08-25T12:08:50.071Z,27.70
2022-08-25T12:11:55.970Z,27.70
2022-08-25T12:15:18.131Z,27.40
2022-08-25T12:18:22.987Z,27.20
2022-08-25T12:21:32.091Z,27.20
2022-08-25T12:24:37.166Z,27.10
2022-08-25T12:27:39.220Z,26.90
2022-08-25T12:30:41.174Z,26.80
2022-08-25T12:34:05.862Z,26.70
2022-08-25T12:37:18.723Z,26.60
2022-08-25T12:40:43.981Z,26.50
2022-08-25T12:43:48.590Z,26.60
2022-08-25T12:47:05.713Z,26.60
2022-08-25T12:50:29.569Z,26.40
2022-08-25T12:53:35.606Z,26.40
2022-08-25T12:56:42.100Z,26.50
2022-08-25T12:59:50.885Z,26.50
2022-08-25T13:02:53.462Z,26.60
2022-08-25T13:06:19.193Z,26.70
2022-08-25T13:09:39.535Z,26.60
2022-08-25T13:12:47.455Z,26.50
2022-08-25T13:16:05.021Z,26.40
2022-08-25T13:19:07.595Z,26.60
2022-08-25T13:22:16.540Z,26.70
2022-08-25T13:25:21.191Z,26.80
2022-08-25T13:28:40.807Z,26.80
2022-08-25T13:32:09.352Z,26.80
2022-08-25T13:35:20.093Z,26.80
2022-08-25T13:38:22.352Z,26.80
2022-08-25T13:41:28.699Z,26.80
2022-08-25T13:44:35.501Z,27.00
2022-08-25T13:47:43.828Z,27.00
2022-08-25T13:50:51.828Z,27.00
2022-08-25T13:53:56.511Z,27.10
2022-08-25T13:57:13.414Z,27.10
2022-08-25T14:00:25.795Z,27.20
2022-08-25T14:03:36.445Z,27.20
2022-08-25T14:06:38.443Z,27.30
2022-08-25T14:09:45.567Z,27.40
2022-08-25T14:12:49.763Z,27.50
2022-08-25T14:15:52.148Z,27.50
2022-08-25T14:18:58.888Z,27.40
2022-08-25T14:22:03.042Z,27.50
2022-08-25T14:25:06.481Z,27.60
2022-08-25T14:28:14.034Z,27.80
2022-08-25T14:31:29.832Z,27.80
2022-08-25T14:34:36.816Z,27.80
2022-08-25T14:37:38.781Z,27.80
2022-08-25T14:40:42.721Z,27.90
2022-08-25T14:43:45.411Z,27.90
2022-08-25T14:46:56.369Z,27.90
2022-08-25T14:49:58.798Z,28.10
2022-08-25T14:53:00.942Z,28.00
2022-08-25T14:56:08.488Z,28.00
2022-08-25T14:59:12.440Z,27.80
2022-08-25T15:02:19.912Z,27.90
2022-08-25T15:05:28.297Z,27.90
2022-08-25T15:08:49.107Z,28.00
2022-08-25T15:11:52.564Z,28.10
2022-08-25T15:14:56.634Z,27.90
2022-08-25T15:18:01.231Z,27.90
2022-08-25T15:21:03.406Z,27.80
2022-08-25T15:24:05.527Z,27.90
2022-08-25T15:27:10.099Z,27.90
2022-08-25T15:30:13.915Z,27.90
2022-08-25T15:33:15.836Z,27.90
2022-08-25T15:36:20.685Z,27.90
2022-08-25T15:39:22.705Z,27.70
2022-08-25T15:42:26.342Z,27.60
2022-08-25T15:45:28.420Z,27.40
2022-08-25T15:48:32.093Z,27.50
2022-08-25T15:51:34.101Z,27.50
2022-08-25T15:54:36.640Z,27.60
2022-08-25T15:57:39.646Z,27.50
2022-08-25T16:00:45.201Z,27.50
2022-08-25T16:03:58.523Z,27.50
2022-08-25T16:07:00.634Z,27.60
2022-08-25T16:10:03.879Z,27.60
2022-08-25T16:13:06.251Z,27.60
2022-08-25T16:16:10.736Z,27.70
2022-08-25T16:19:15.046Z,27.60
2022-08-25T16:22:17.508Z,27.70
2022-08-25T16:25:21.006Z,27.70
2022-08-25T16:28:24.434Z,27.60
2022-08-25T16:31:26.968Z,27.50
2022-08-25T16:34:30.808Z,27.50
2022-08-25T16:37:34.448Z,27.40
2022-08-25T16:40:38.909Z,27.30
2022-08-25T16:43:43.398Z,27.20
2022-08-25T16:46:45.671Z,27.10
2022-08-25T16:49:48.802Z,26.90
2022-08-25T16:53:09.377Z,26.90
2022-08-25T16:56:11.711Z,26.90
2022-08-25T16:59:14.119Z,26.90
2022-08-25T17:02:16.418Z,26.80
2022-08-25T17:05:20.690Z,26.60
2022-08-25T17:08:29.142Z,26.60
2022-08-25T17:11:35.298Z,26.60
2022-08-25T17:14:37.487Z,26.70
2022-08-25T17:17:39.396Z,26.60
2022-08-25T17:20:43.365Z,26.60
2022-08-25T17:23:45.567Z,26.60
2022-08-25T17:26:50.300Z,26.60
2022-08-25T17:29:52.385Z,26.50
2022-08-25T17:32:54.573Z,26.50
2022-08-25T17:35:57.252Z,26.50
2022-08-25T17:38:59.570Z,26.40
2022-08-25T17:42:01.733Z,26.40
2022-08-25T17:45:07.221Z,26.40
2022-08-25T17:48:09.437Z,26.40
2022-08-25T17:51:11.832Z,26.30
2022-08-25T17:54:14.300Z,26.20
2022-08-25T17:57:16.302Z,26.10
2022-08-25T18:00:22.663Z,26.00
2022-08-25T18:03:26.236Z,25.90
2022-08-25T18:06:31.646Z,25.80
2022-08-25T18:09:33.842Z,25.60
2022-08-25T18:12:41.034Z,25.60
2022-08-25T18:15:45.562Z,25.50
2022-08-25T18:18:47.531Z,25.40
2022-08-25T18:21:50.478Z,25.40
2022-08-25T18:24:54.563Z,25.10
2022-08-25T18:27:57.748Z,25.00
2022-08-25T18:31:02.486Z,24.90
2022-08-25T18:34:05.167Z,24.70
2022-08-25T18:37:25.702Z,24.70
2022-08-25T18:40:28.282Z,24.60
2022-08-25T18:43:34.036Z,24.40
2022-08-25T18:46:36.205Z,24.30
2022-08-25T18:49:38.509Z,24.20
2022-08-25T18:52:41.268Z,24.10
2022-08-25T18:55:45.204Z,24.00
2022-08-25T18:58:47.556Z,23.90
2022-08-25T19:01:50.049Z,23.80
2022-08-25T19:04:53.014Z,23.70
2022-08-25T19:07:54.949Z,23.60
2022-08-25T19:10:56.909Z,23.50
2022-08-25T19:13:59.893Z,23.30
2022-08-25T19:17:02.302Z,23.30
2022-08-25T19:20:04.788Z,23.20
2022-08-25T19:23:13.348Z,23.10
2022-08-25T19:26:17.354Z,23.00
2022-08-25T19:29:19.977Z,22.90
2022-08-25T19:32:22.115Z,22.80
2022-08-25T19:35:30.907Z,22.80
2022-08-25T19:38:35.520Z,22.70
2022-08-25T19:41:37.653Z,22.60
2022-08-25T19:44:40.818Z,22.60
2022-08-25T19:47:43.730Z,22.60
2022-08-25T19:50:45.676Z,22.60
2022-08-25T19:53:51.175Z,22.50
2022-08-25T19:56:58.152Z,22.40
2022-08-25T20:00:00.624Z,22.40
2022-08-25T20:03:03.154Z,22.30
2022-08-25T20:06:05.796Z,22.30
2022-08-25T20:09:08.295Z,22.30
2022-08-25T20:12:24.258Z,22.30
2022-08-25T20:15:26.700Z,22.20
2022-08-25T20:18:28.631Z,22.20
2022-08-25T20:21:31.329Z,22.10
2022-08-25T20:24:51.029Z,22.00
2022-08-25T20:27:58.530Z,22.10
2022-08-25T20:31:00.563Z,22.00
2022-08-25T20:34:03.093Z,22.00
2022-08-25T20:37:05.425Z,22.00
2022-08-25T20:40:10.960Z,22.00
2022-08-25T20:43:13.442Z,22.00
2022-08-25T20:46:16.891Z,21.90
2022-08-25T20:49:20.316Z,21.90
2022-08-25T20:52:23.512Z,21.80
2022-08-25T20:55:27.880Z,21.80
2022-08-25T20:58:30.445Z,21.70
2022-08-25T21:01:40.078Z,21.70
2022-08-25T21:04:49.112Z,21.60
2022-08-25T21:07:52.810Z,21.50
2022-08-25T21:10:54.782Z,21.50
2022-08-25T21:13:58.585Z,21.50
2022-08-25T21:17:01.441Z,21.50
2022-08-25T21:20:05.534Z,21.40
2022-08-25T21:23:08.678Z,21.40
2022-08-25T21:26:14.953Z,21.30
2022-08-25T21:29:18.125Z,21.30
2022-08-25T21:32:20.069Z,21.30
2022-08-25T21:35:23.216Z,21.40
2022-08-25T21:38:25.212Z,21.40
2022-08-25T21:41:29.527Z,21.50
2022-08-25T21:44:31.433Z,21.50
2022-08-25T21:47:33.515Z,21.60
2022-08-25T21:50:37.923Z,21.60
2022-08-25T21:53:40.247Z,21.60
2022-08-25T21:56:49.413Z,21.60
2022-08-25T21:59:51.753Z,21.60
2022-08-25T22:02:54.090Z,21.60
2022-08-25T22:05:56.708Z,21.60
2022-08-25T22:08:58.941Z,21.60
2022-08-25T22:12:01.173Z,21.60
2022-08-25T22:15:06.061Z,21.60
2022-08-25T22:18:08.067Z,21.60
2022-08-25T22:21:10.266Z,21.70
2022-08-25T22:24:13.309Z,21.60
2022-08-25T22:27:17.188Z,21.60
2022-08-25T22:30:19.446Z,21.60
2022-08-25T22:33:22.037Z,21.70
2022-08-25T22:36:24.825Z,21.60
2022-08-25T22:39:27.534Z,21.70
2022-08-25T22:42:29.642Z,21.70
2022-08-25T22:45:32.699Z,21.60
2022-08-25T22:48:35.959Z,21.70
2022-08-25T22:51:38.343Z,21.70
2022-08-25T22:54:41.196Z,21.60
2022-08-25T22:57:43.162Z,21.60
2022-08-25T23:00:45.186Z,21.60
2022-08-25T23:03:48.818Z,21.60
2022-08-25T23:06:51.065Z,21.50
2022-08-25T23:09:53.198Z,21.50
2022-08-25T23:12:55.163Z,21.40
2022-08-25T23:15:57.085Z,21.40
2022-08-25T23:18:59.693Z,21.40
2022-08-25T23:22:10.473Z,21.40
2022-08-25T23:25:13.041Z,21.40
2022-08-25T23:28:15.873Z,21.30
2022-08-25T23:31:25.004Z,21.30
2022-08-25T23:34:28.594Z,21.30
2022-08-25T23:37:30.719Z,21.30
2022-08-25T23:40:33.022Z,21.30
2022-08-25T23:43:38.684Z,21.20
2022-08-25T23:46:41.088Z,21.20
2022-08-25T23:49:43.072Z,21.20
2022-08-25T23:52:45.113Z,21.10
2022-08-25T23:55:52.892Z,21.00
2022-08-25T23:58:55.951Z,21.00
